sensor_id;sensor_type;location;lat;lon;timestamp;P1;durP1;ratioP1;P2;durP2;ratioP2
8592;SDS011;4334;49.982;8.398;2022-12-08T00:02:13;20.63;;;12.07;;
8592;SDS011;4334;49.982;8.398;2022-12-08T00:04:40;21.73;;;13.03;;
8592;SDS011;4334;49.982;8.398;2022-12-08T00:07:21;18.97;;;12.20;;
8592;SDS011;4334;49.982;8.398;2022-12-08T00:10:07;19.50;;;12.13;;
8592;SDS011;4334;49.982;8.398;2022-12-08T00:12:34;22.13;;;12.53;;
8592;SDS011;4334;49.982;8.398;2022-12-08T00:15:02;23.10;;;13.07;;
8592;SDS011;4334;49.982;8.398;2022-12-08T00:17:29;24.87;;;13.37;;
8592;SDS011;4334;49.982;8.398;2022-12-08T00:19:56;21.43;;;12.63;;
8592;SDS011;4334;49.982;8.398;2022-12-08T00:22:25;23.77;;;13.20;;
8592;SDS011;4334;49.982;8.398;2022-12-08T00:24:58;26.00;;;13.17;;
8592;SDS011;4334;49.982;8.398;2022-12-08T00:27:27;21.77;;;12.73;;
8592;SDS011;4334;49.982;8.398;2022-12-08T00:29:54;23.63;;;13.10;;
8592;SDS011;4334;49.982;8.398;2022-12-08T00:32:21;22.30;;;13.40;;
8592;SDS011;4334;49.982;8.398;2022-12-08T00:34:49;24.90;;;13.10;;
8592;SDS011;4334;49.982;8.398;2022-12-08T00:37:16;21.87;;;13.13;;
8592;SDS011;4334;49.982;8.398;2022-12-08T00:39:44;24.07;;;12.67;;
8592;SDS011;4334;49.982;8.398;2022-12-08T00:42:11;20.63;;;12.57;;
8592;SDS011;4334;49.982;8.398;2022-12-08T00:44:40;23.97;;;13.80;;
8592;SDS011;4334;49.982;8.398;2022-12-08T00:47:08;23.80;;;12.97;;
8592;SDS011;4334;49.982;8.398;2022-12-08T00:49:35;22.43;;;13.17;;
8592;SDS011;4334;49.982;8.398;2022-12-08T00:52:02;19.13;;;12.93;;
8592;SDS011;4334;49.982;8.398;2022-12-08T00:54:29;22.67;;;13.17;;
8592;SDS011;4334;49.982;8.398;2022-12-08T00:56:56;23.23;;;13.30;;
8592;SDS011;4334;49.982;8.398;2022-12-08T00:59:23;23.67;;;13.33;;
8592;SDS011;4334;49.982;8.398;2022-12-08T01:01:51;21.83;;;13.00;;
8592;SDS011;4334;49.982;8.398;2022-12-08T01:04:18;21.70;;;13.47;;
8592;SDS011;4334;49.982;8.398;2022-12-08T01:06:45;23.47;;;12.30;;
8592;SDS011;4334;49.982;8.398;2022-12-08T01:09:13;24.70;;;12.53;;
8592;SDS011;4334;49.982;8.398;2022-12-08T01:11:41;27.30;;;12.50;;
8592;SDS011;4334;49.982;8.398;2022-12-08T01:14:09;19.97;;;12.33;;
8592;SDS011;4334;49.982;8.398;2022-12-08T01:16:36;22.47;;;12.87;;
8592;SDS011;4334;49.982;8.398;2022-12-08T01:19:06;24.40;;;13.50;;
8592;SDS011;4334;49.982;8.398;2022-12-08T01:21:35;24.63;;;13.10;;
8592;SDS011;4334;49.982;8.398;2022-12-08T01:24:01;21.67;;;12.63;;
8592;SDS011;4334;49.982;8.398;2022-12-08T01:26:29;24.27;;;13.20;;
8592;SDS011;4334;49.982;8.398;2022-12-08T01:28:55;22.10;;;12.43;;
8592;SDS011;4334;49.982;8.398;2022-12-08T01:31:22;23.90;;;13.47;;
8592;SDS011;4334;49.982;8.398;2022-12-08T01:33:49;23.93;;;12.83;;
8592;SDS011;4334;49.982;8.398;2022-12-08T01:36:19;25.93;;;12.77;;
8592;SDS011;4334;49.982;8.398;2022-12-08T01:38:48;26.83;;;14.03;;
8592;SDS011;4334;49.982;8.398;2022-12-08T01:41:16;23.13;;;13.00;;
8592;SDS011;4334;49.982;8.398;2022-12-08T01:43:55;23.93;;;12.73;;
8592;SDS011;4334;49.982;8.398;2022-12-08T01:46:24;22.37;;;13.03;;
8592;SDS011;4334;49.982;8.398;2022-12-08T01:48:53;25.07;;;12.80;;
8592;SDS011;4334;49.982;8.398;2022-12-08T01:51:23;24.60;;;13.67;;
8592;SDS011;4334;49.982;8.398;2022-12-08T01:53:51;24.67;;;13.97;;
8592;SDS011;4334;49.982;8.398;2022-12-08T01:56:19;23.53;;;12.97;;
8592;SDS011;4334;49.982;8.398;2022-12-08T01:58:52;23.80;;;12.87;;
8592;SDS011;4334;49.982;8.398;2022-12-08T02:01:20;21.47;;;13.57;;
8592;SDS011;4334;49.982;8.398;2022-12-08T02:03:49;25.77;;;13.17;;
8592;SDS011;4334;49.982;8.398;2022-12-08T02:06:20;23.13;;;13.70;;
8592;SDS011;4334;49.982;8.398;2022-12-08T02:08:48;20.33;;;13.77;;
8592;SDS011;4334;49.982;8.398;2022-12-08T02:11:15;25.17;;;13.90;;
8592;SDS011;4334;49.982;8.398;2022-12-08T02:13:43;23.83;;;14.03;;
8592;SDS011;4334;49.982;8.398;2022-12-08T02:16:14;21.10;;;13.43;;
8592;SDS011;4334;49.982;8.398;2022-12-08T02:18:55;27.77;;;13.97;;
8592;SDS011;4334;49.982;8.398;2022-12-08T02:21:35;24.57;;;13.60;;
8592;SDS011;4334;49.982;8.398;2022-12-08T02:24:10;24.97;;;13.07;;
8592;SDS011;4334;49.982;8.398;2022-12-08T02:30:04;25.13;;;13.07;;
8592;SDS011;4334;49.982;8.398;2022-12-08T02:35:51;25.77;;;13.80;;
8592;SDS011;4334;49.982;8.398;2022-12-08T02:38:26;25.70;;;13.83;;
8592;SDS011;4334;49.982;8.398;2022-12-08T02:41:04;25.90;;;14.07;;
8592;SDS011;4334;49.982;8.398;2022-12-08T02:43:39;28.20;;;14.53;;
8592;SDS011;4334;49.982;8.398;2022-12-08T02:46:10;27.37;;;14.73;;
8592;SDS011;4334;49.982;8.398;2022-12-08T02:48:41;28.50;;;14.73;;
8592;SDS011;4334;49.982;8.398;2022-12-08T02:51:10;32.63;;;15.60;;
8592;SDS011;4334;49.982;8.398;2022-12-08T02:53:37;30.80;;;15.20;;
8592;SDS011;4334;49.982;8.398;2022-12-08T02:56:08;33.10;;;15.80;;
8592;SDS011;4334;49.982;8.398;2022-12-08T02:58:51;29.57;;;15.60;;
8592;SDS011;4334;49.982;8.398;2022-12-08T03:01:32;32.10;;;15.47;;
8592;SDS011;4334;49.982;8.398;2022-12-08T03:04:15;30.80;;;15.47;;
8592;SDS011;4334;49.982;8.398;2022-12-08T03:06:51;35.83;;;15.23;;
8592;SDS011;4334;49.982;8.398;2022-12-08T03:09:26;28.17;;;15.23;;
8592;SDS011;4334;49.982;8.398;2022-12-08T03:12:02;28.70;;;15.50;;
8592;SDS011;4334;49.982;8.398;2022-12-08T03:14:35;27.60;;;14.30;;
8592;SDS011;4334;49.982;8.398;2022-12-08T03:17:04;28.90;;;14.73;;
8592;SDS011;4334;49.982;8.398;2022-12-08T03:19:33;29.87;;;15.77;;
8592;SDS011;4334;49.982;8.398;2022-12-08T03:22:04;29.07;;;14.67;;
8592;SDS011;4334;49.982;8.398;2022-12-08T03:24:33;31.30;;;14.90;;
8592;SDS011;4334;49.982;8.398;2022-12-08T03:27:03;29.47;;;14.30;;
8592;SDS011;4334;49.982;8.398;2022-12-08T03:29:33;30.13;;;15.20;;
8592;SDS011;4334;49.982;8.398;2022-12-08T03:32:02;28.50;;;14.90;;
8592;SDS011;4334;49.982;8.398;2022-12-08T03:34:34;30.53;;;14.87;;
8592;SDS011;4334;49.982;8.398;2022-12-08T03:37:03;29.10;;;14.53;;
8592;SDS011;4334;49.982;8.398;2022-12-08T03:39:31;29.87;;;15.23;;
8592;SDS011;4334;49.982;8.398;2022-12-08T03:41:58;28.50;;;14.33;;
8592;SDS011;4334;49.982;8.398;2022-12-08T03:44:25;28.40;;;14.40;;
8592;SDS011;4334;49.982;8.398;2022-12-08T03:46:52;26.40;;;14.00;;
8592;SDS011;4334;49.982;8.398;2022-12-08T03:49:18;26.40;;;14.33;;
8592;SDS011;4334;49.982;8.398;2022-12-08T03:51:45;29.57;;;15.27;;
8592;SDS011;4334;49.982;8.398;2022-12-08T03:54:14;29.17;;;13.47;;
8592;SDS011;4334;49.982;8.398;2022-12-08T03:56:41;29.90;;;14.47;;
8592;SDS011;4334;49.982;8.398;2022-12-08T03:59:08;24.80;;;13.70;;
8592;SDS011;4334;49.982;8.398;2022-12-08T04:01:36;25.17;;;13.30;;
8592;SDS011;4334;49.982;8.398;2022-12-08T04:04:03;31.43;;;14.43;;
8592;SDS011;4334;49.982;8.398;2022-12-08T04:06:30;23.60;;;13.30;;
8592;SDS011;4334;49.982;8.398;2022-12-08T04:08:57;28.27;;;13.60;;
8592;SDS011;4334;49.982;8.398;2022-12-08T04:11:27;25.53;;;13.27;;
8592;SDS011;4334;49.982;8.398;2022-12-08T04:13:54;27.80;;;14.03;;
8592;SDS011;4334;49.982;8.398;2022-12-08T04:16:21;26.47;;;13.50;;
8592;SDS011;4334;49.982;8.398;2022-12-08T04:18:50;26.57;;;12.77;;
8592;SDS011;4334;49.982;8.398;2022-12-08T04:21:16;26.90;;;13.47;;
8592;SDS011;4334;49.982;8.398;2022-12-08T04:23:44;24.60;;;12.93;;
8592;SDS011;4334;49.982;8.398;2022-12-08T04:26:11;23.80;;;13.27;;
8592;SDS011;4334;49.982;8.398;2022-12-08T04:28:40;22.20;;;12.90;;
8592;SDS011;4334;49.982;8.398;2022-12-08T04:31:08;24.20;;;13.37;;
8592;SDS011;4334;49.982;8.398;2022-12-08T04:33:37;23.67;;;12.93;;
8592;SDS011;4334;49.982;8.398;2022-12-08T04:36:04;22.77;;;12.40;;
8592;SDS011;4334;49.982;8.398;2022-12-08T04:38:32;27.93;;;12.77;;
8592;SDS011;4334;49.982;8.398;2022-12-08T04:40:59;26.97;;;13.07;;
8592;SDS011;4334;49.982;8.398;2022-12-08T04:43:27;24.63;;;12.27;;
8592;SDS011;4334;49.982;8.398;2022-12-08T04:45:55;27.53;;;12.57;;
8592;SDS011;4334;49.982;8.398;2022-12-08T04:48:23;34.37;;;13.23;;
8592;SDS011;4334;49.982;8.398;2022-12-08T04:50:49;34.97;;;12.97;;
8592;SDS011;4334;49.982;8.398;2022-12-08T04:53:17;29.13;;;12.30;;
8592;SDS011;4334;49.982;8.398;2022-12-08T04:55:45;27.20;;;11.60;;
8592;SDS011;4334;49.982;8.398;2022-12-08T04:58:14;28.37;;;11.97;;
8592;SDS011;4334;49.982;8.398;2022-12-08T05:00:42;32.87;;;12.77;;
8592;SDS011;4334;49.982;8.398;2022-12-08T05:03:11;30.37;;;12.83;;
8592;SDS011;4334;49.982;8.398;2022-12-08T05:05:39;25.93;;;10.83;;
8592;SDS011;4334;49.982;8.398;2022-12-08T05:08:07;25.63;;;11.40;;
8592;SDS011;4334;49.982;8.398;2022-12-08T05:10:34;26.07;;;11.80;;
8592;SDS011;4334;49.982;8.398;2022-12-08T05:13:02;38.80;;;11.97;;
8592;SDS011;4334;49.982;8.398;2022-12-08T05:15:29;31.07;;;12.23;;
8592;SDS011;4334;49.982;8.398;2022-12-08T05:17:56;34.43;;;12.13;;
8592;SDS011;4334;49.982;8.398;2022-12-08T05:20:24;27.13;;;11.90;;
8592;SDS011;4334;49.982;8.398;2022-12-08T05:22:51;29.80;;;12.07;;
8592;SDS011;4334;49.982;8.398;2022-12-08T05:25:18;25.80;;;11.47;;
8592;SDS011;4334;49.982;8.398;2022-12-08T05:27:45;29.20;;;13.03;;
8592;SDS011;4334;49.982;8.398;2022-12-08T05:30:12;32.97;;;13.83;;
8592;SDS011;4334;49.982;8.398;2022-12-08T05:32:39;34.27;;;13.17;;
8592;SDS011;4334;49.982;8.398;2022-12-08T05:35:06;31.00;;;12.03;;
8592;SDS011;4334;49.982;8.398;2022-12-08T05:37:35;20.80;;;11.00;;
8592;SDS011;4334;49.982;8.398;2022-12-08T05:40:02;21.10;;;10.33;;
8592;SDS011;4334;49.982;8.398;2022-12-08T05:42:29;23.83;;;12.00;;
8592;SDS011;4334;49.982;8.398;2022-12-08T05:44:56;21.00;;;11.13;;
8592;SDS011;4334;49.982;8.398;2022-12-08T05:47:23;22.73;;;11.10;;
8592;SDS011;4334;49.982;8.398;2022-12-08T05:49:50;18.67;;;10.17;;
8592;SDS011;4334;49.982;8.398;2022-12-08T05:52:17;24.37;;;11.30;;
8592;SDS011;4334;49.982;8.398;2022-12-08T05:54:46;31.80;;;12.80;;
8592;SDS011;4334;49.982;8.398;2022-12-08T05:57:13;30.80;;;11.83;;
8592;SDS011;4334;49.982;8.398;2022-12-08T05:59:40;29.90;;;12.17;;
8592;SDS011;4334;49.982;8.398;2022-12-08T06:02:07;27.57;;;11.57;;
8592;SDS011;4334;49.982;8.398;2022-12-08T06:04:34;22.73;;;11.03;;
8592;SDS011;4334;49.982;8.398;2022-12-08T06:07:01;30.10;;;11.33;;
8592;SDS011;4334;49.982;8.398;2022-12-08T06:09:28;22.77;;;10.40;;
8592;SDS011;4334;49.982;8.398;2022-12-08T06:11:56;17.83;;;10.30;;
8592;SDS011;4334;49.982;8.398;2022-12-08T06:14:23;24.00;;;11.37;;
8592;SDS011;4334;49.982;8.398;2022-12-08T06:16:50;25.73;;;12.30;;
8592;SDS011;4334;49.982;8.398;2022-12-08T06:19:17;21.30;;;11.47;;
8592;SDS011;4334;49.982;8.398;2022-12-08T06:21:44;24.43;;;11.20;;
8592;SDS011;4334;49.982;8.398;2022-12-08T06:24:11;17.30;;;10.00;;
8592;SDS011;4334;49.982;8.398;2022-12-08T06:26:38;17.37;;;9.50;;
8592;SDS011;4334;49.982;8.398;2022-12-08T06:29:07;20.43;;;11.20;;
8592;SDS011;4334;49.982;8.398;2022-12-08T06:31:33;17.77;;;10.63;;
8592;SDS011;4334;49.982;8.398;2022-12-08T06:34:00;20.93;;;11.53;;
8592;SDS011;4334;49.982;8.398;2022-12-08T06:36:27;20.97;;;11.93;;
8592;SDS011;4334;49.982;8.398;2022-12-08T06:38:54;18.50;;;11.63;;
8592;SDS011;4334;49.982;8.398;2022-12-08T06:41:21;25.67;;;13.13;;
8592;SDS011;4334;49.982;8.398;2022-12-08T06:43:48;19.43;;;11.10;;
8592;SDS011;4334;49.982;8.398;2022-12-08T06:46:18;23.40;;;12.23;;
8592;SDS011;4334;49.982;8.398;2022-12-08T06:48:45;21.07;;;12.93;;
8592;SDS011;4334;49.982;8.398;2022-12-08T06:51:14;23.90;;;12.97;;
8592;SDS011;4334;49.982;8.398;2022-12-08T06:53:44;21.23;;;11.30;;
8592;SDS011;4334;49.982;8.398;2022-12-08T06:56:11;26.40;;;14.17;;
8592;SDS011;4334;49.982;8.398;2022-12-08T06:58:39;22.03;;;12.57;;
8592;SDS011;4334;49.982;8.398;2022-12-08T07:01:08;20.50;;;11.37;;
8592;SDS011;4334;49.982;8.398;2022-12-08T07:03:37;18.60;;;11.03;;
8592;SDS011;4334;49.982;8.398;2022-12-08T07:06:08;20.57;;;10.30;;
8592;SDS011;4334;49.982;8.398;2022-12-08T07:08:40;30.93;;;14.07;;
8592;SDS011;4334;49.982;8.398;2022-12-08T07:11:08;21.70;;;10.90;;
8592;SDS011;4334;49.982;8.398;2022-12-08T07:13:35;22.57;;;11.43;;
8592;SDS011;4334;49.982;8.398;2022-12-08T07:16:03;25.10;;;10.93;;
8592;SDS011;4334;49.982;8.398;2022-12-08T07:18:31;19.27;;;11.27;;
8592;SDS011;4334;49.982;8.398;2022-12-08T07:21:02;20.50;;;12.00;;
8592;SDS011;4334;49.982;8.398;2022-12-08T07:23:30;18.43;;;10.50;;
8592;SDS011;4334;49.982;8.398;2022-12-08T07:25:58;21.50;;;11.30;;
8592;SDS011;4334;49.982;8.398;2022-12-08T07:28:26;20.37;;;10.77;;
8592;SDS011;4334;49.982;8.398;2022-12-08T07:30:54;17.83;;;10.23;;
8592;SDS011;4334;49.982;8.398;2022-12-08T07:33:21;21.13;;;11.77;;
8592;SDS011;4334;49.982;8.398;2022-12-08T07:35:52;20.87;;;10.73;;
8592;SDS011;4334;49.982;8.398;2022-12-08T07:38:21;20.23;;;11.43;;
8592;SDS011;4334;49.982;8.398;2022-12-08T07:40:48;19.37;;;9.93;;
8592;SDS011;4334;49.982;8.398;2022-12-08T07:43:14;18.50;;;11.33;;
8592;SDS011;4334;49.982;8.398;2022-12-08T07:45:41;19.90;;;11.43;;
8592;SDS011;4334;49.982;8.398;2022-12-08T07:48:10;19.97;;;11.47;;
8592;SDS011;4334;49.982;8.398;2022-12-08T07:50:37;18.53;;;10.73;;
8592;SDS011;4334;49.982;8.398;2022-12-08T07:53:04;19.40;;;11.03;;
8592;SDS011;4334;49.982;8.398;2022-12-08T07:55:33;16.13;;;10.20;;
8592;SDS011;4334;49.982;8.398;2022-12-08T07:58:00;19.17;;;10.60;;
8592;SDS011;4334;49.982;8.398;2022-12-08T08:00:26;18.50;;;10.33;;
8592;SDS011;4334;49.982;8.398;2022-12-08T08:02:53;17.80;;;9.93;;
8592;SDS011;4334;49.982;8.398;2022-12-08T08:05:21;16.07;;;9.80;;
8592;SDS011;4334;49.982;8.398;2022-12-08T08:07:48;19.23;;;10.90;;
8592;SDS011;4334;49.982;8.398;2022-12-08T08:10:15;16.70;;;10.90;;
8592;SDS011;4334;49.982;8.398;2022-12-08T08:12:43;18.73;;;11.03;;
8592;SDS011;4334;49.982;8.398;2022-12-08T08:15:11;19.47;;;11.27;;
8592;SDS011;4334;49.982;8.398;2022-12-08T08:17:38;21.30;;;10.37;;
8592;SDS011;4334;49.982;8.398;2022-12-08T08:20:05;17.00;;;10.50;;
8592;SDS011;4334;49.982;8.398;2022-12-08T08:22:43;18.43;;;10.53;;
8592;SDS011;4334;49.982;8.398;2022-12-08T08:25:11;17.20;;;10.53;;
8592;SDS011;4334;49.982;8.398;2022-12-08T08:27:38;17.70;;;10.63;;
8592;SDS011;4334;49.982;8.398;2022-12-08T08:30:08;21.53;;;11.30;;
8592;SDS011;4334;49.982;8.398;2022-12-08T08:32:36;17.27;;;10.43;;
8592;SDS011;4334;49.982;8.398;2022-12-08T08:35:04;18.53;;;10.63;;
8592;SDS011;4334;49.982;8.398;2022-12-08T08:37:31;18.57;;;10.13;;
8592;SDS011;4334;49.982;8.398;2022-12-08T08:39:58;19.17;;;10.93;;
8592;SDS011;4334;49.982;8.398;2022-12-08T08:42:24;17.73;;;10.47;;
8592;SDS011;4334;49.982;8.398;2022-12-08T08:44:51;17.17;;;10.50;;
8592;SDS011;4334;49.982;8.398;2022-12-08T08:47:20;20.30;;;10.63;;
8592;SDS011;4334;49.982;8.398;2022-12-08T08:49:47;17.60;;;10.30;;
8592;SDS011;4334;49.982;8.398;2022-12-08T08:52:14;17.93;;;10.47;;
8592;SDS011;4334;49.982;8.398;2022-12-08T08:54:41;18.10;;;10.23;;
8592;SDS011;4334;49.982;8.398;2022-12-08T08:57:08;17.03;;;10.20;;
8592;SDS011;4334;49.982;8.398;2022-12-08T08:59:35;18.10;;;9.63;;
8592;SDS011;4334;49.982;8.398;2022-12-08T09:02:02;18.17;;;9.83;;
8592;SDS011;4334;49.982;8.398;2022-12-08T09:04:30;15.13;;;10.20;;
8592;SDS011;4334;49.982;8.398;2022-12-08T09:06:57;16.70;;;10.67;;
8592;SDS011;4334;49.982;8.398;2022-12-08T09:09:24;17.03;;;9.53;;
8592;SDS011;4334;49.982;8.398;2022-12-08T09:11:51;16.23;;;9.30;;
8592;SDS011;4334;49.982;8.398;2022-12-08T09:14:19;13.93;;;9.40;;
8592;SDS011;4334;49.982;8.398;2022-12-08T09:16:47;13.63;;;8.17;;
8592;SDS011;4334;49.982;8.398;2022-12-08T09:19:14;15.47;;;9.37;;
8592;SDS011;4334;49.982;8.398;2022-12-08T09:21:42;14.93;;;9.20;;
8592;SDS011;4334;49.982;8.398;2022-12-08T09:24:09;14.20;;;8.97;;
8592;SDS011;4334;49.982;8.398;2022-12-08T09:26:39;16.40;;;10.37;;
8592;SDS011;4334;49.982;8.398;2022-12-08T09:29:07;16.87;;;9.17;;
8592;SDS011;4334;49.982;8.398;2022-12-08T09:31:34;16.07;;;9.20;;
8592;SDS011;4334;49.982;8.398;2022-12-08T09:34:01;12.90;;;8.23;;
8592;SDS011;4334;49.982;8.398;2022-12-08T09:36:29;14.13;;;9.13;;
8592;SDS011;4334;49.982;8.398;2022-12-08T09:38:58;13.80;;;8.97;;
8592;SDS011;4334;49.982;8.398;2022-12-08T09:41:28;15.50;;;9.10;;
8592;SDS011;4334;49.982;8.398;2022-12-08T09:44:00;13.67;;;9.10;;
8592;SDS011;4334;49.982;8.398;2022-12-08T09:46:38;12.33;;;7.80;;
8592;SDS011;4334;49.982;8.398;2022-12-08T09:49:07;14.37;;;8.20;;
8592;SDS011;4334;49.982;8.398;2022-12-08T09:51:39;17.03;;;8.17;;
8592;SDS011;4334;49.982;8.398;2022-12-08T09:54:11;19.93;;;9.43;;
8592;SDS011;4334;49.982;8.398;2022-12-08T09:56:44;12.53;;;8.23;;
8592;SDS011;4334;49.982;8.398;2022-12-08T09:59:16;14.33;;;8.17;;
8592;SDS011;4334;49.982;8.398;2022-12-08T10:01:48;12.43;;;8.63;;
8592;SDS011;4334;49.982;8.398;2022-12-08T10:04:18;14.80;;;8.90;;
8592;SDS011;4334;49.982;8.398;2022-12-08T10:06:50;12.87;;;8.07;;
8592;SDS011;4334;49.982;8.398;2022-12-08T10:09:27;10.97;;;7.67;;
8592;SDS011;4334;49.982;8.398;2022-12-08T10:11:59;13.97;;;7.87;;
8592;SDS011;4334;49.982;8.398;2022-12-08T10:14:32;13.80;;;8.57;;
8592;SDS011;4334;49.982;8.398;2022-12-08T10:17:07;30.97;;;16.47;;
8592;SDS011;4334;49.982;8.398;2022-12-08T10:19:42;17.73;;;9.20;;
8592;SDS011;4334;49.982;8.398;2022-12-08T10:22:11;13.73;;;7.53;;
8592;SDS011;4334;49.982;8.398;2022-12-08T10:24:47;13.27;;;7.87;;
8592;SDS011;4334;49.982;8.398;2022-12-08T10:27:20;12.27;;;7.70;;
8592;SDS011;4334;49.982;8.398;2022-12-08T10:29:47;13.10;;;8.07;;
8592;SDS011;4334;49.982;8.398;2022-12-08T10:32:15;13.27;;;7.80;;
8592;SDS011;4334;49.982;8.398;2022-12-08T10:35:03;14.30;;;7.83;;
8592;SDS011;4334;49.982;8.398;2022-12-08T10:37:32;13.20;;;8.13;;
8592;SDS011;4334;49.982;8.398;2022-12-08T10:40:04;13.47;;;9.53;;
8592;SDS011;4334;49.982;8.398;2022-12-08T10:42:36;12.63;;;7.63;;
8592;SDS011;4334;49.982;8.398;2022-12-08T10:45:14;12.57;;;7.93;;
8592;SDS011;4334;49.982;8.398;2022-12-08T10:47:55;12.40;;;8.20;;
8592;SDS011;4334;49.982;8.398;2022-12-08T10:50:27;12.47;;;7.57;;
8592;SDS011;4334;49.982;8.398;2022-12-08T10:53:00;11.57;;;7.73;;
8592;SDS011;4334;49.982;8.398;2022-12-08T10:55:38;11.77;;;8.10;;
8592;SDS011;4334;49.982;8.398;2022-12-08T10:58:21;13.40;;;7.60;;
8592;SDS011;4334;49.982;8.398;2022-12-08T11:00:50;12.77;;;7.60;;
8592;SDS011;4334;49.982;8.398;2022-12-08T11:03:21;12.03;;;7.47;;
8592;SDS011;4334;49.982;8.398;2022-12-08T11:05:54;13.43;;;7.47;;
8592;SDS011;4334;49.982;8.398;2022-12-08T11:08:22;12.03;;;7.63;;
8592;SDS011;4334;49.982;8.398;2022-12-08T11:10:51;11.33;;;7.90;;
8592;SDS011;4334;49.982;8.398;2022-12-08T11:13:19;9.93;;;7.20;;
8592;SDS011;4334;49.982;8.398;2022-12-08T11:15:48;13.43;;;7.17;;
8592;SDS011;4334;49.982;8.398;2022-12-08T11:18:22;11.47;;;7.23;;
8592;SDS011;4334;49.982;8.398;2022-12-08T11:20:57;13.33;;;7.10;;
8592;SDS011;4334;49.982;8.398;2022-12-08T11:23:26;9.97;;;6.70;;
8592;SDS011;4334;49.982;8.398;2022-12-08T11:25:56;9.13;;;6.63;;
8592;SDS011;4334;49.982;8.398;2022-12-08T11:28:28;10.97;;;7.23;;
8592;SDS011;4334;49.982;8.398;2022-12-08T11:30:59;11.73;;;6.87;;
8592;SDS011;4334;49.982;8.398;2022-12-08T11:33:29;10.53;;;6.67;;
8592;SDS011;4334;49.982;8.398;2022-12-08T11:35:58;11.63;;;6.83;;
8592;SDS011;4334;49.982;8.398;2022-12-08T11:38:29;10.87;;;7.00;;
8592;SDS011;4334;49.982;8.398;2022-12-08T11:41:02;9.63;;;6.63;;
8592;SDS011;4334;49.982;8.398;2022-12-08T11:43:35;9.53;;;7.00;;
8592;SDS011;4334;49.982;8.398;2022-12-08T11:46:08;9.80;;;6.43;;
8592;SDS011;4334;49.982;8.398;2022-12-08T11:48:39;9.47;;;6.50;;
8592;SDS011;4334;49.982;8.398;2022-12-08T11:51:11;10.33;;;5.97;;
8592;SDS011;4334;49.982;8.398;2022-12-08T11:53:42;5.13;;;3.73;;
8592;SDS011;4334;49.982;8.398;2022-12-08T11:56:17;5.80;;;3.13;;
8592;SDS011;4334;49.982;8.398;2022-12-08T11:58:47;6.20;;;3.50;;
8592;SDS011;4334;49.982;8.398;2022-12-08T12:01:19;16.07;;;4.17;;
8592;SDS011;4334;49.982;8.398;2022-12-08T12:03:50;33.70;;;21.37;;
8592;SDS011;4334;49.982;8.398;2022-12-08T12:06:30;4.07;;;3.03;;
8592;SDS011;4334;49.982;8.398;2022-12-08T12:09:26;5.00;;;3.20;;
8592;SDS011;4334;49.982;8.398;2022-12-08T12:12:06;4.17;;;3.20;;
8592;SDS011;4334;49.982;8.398;2022-12-08T12:14:46;8.27;;;3.53;;
8592;SDS011;4334;49.982;8.398;2022-12-08T12:17:35;4.23;;;3.27;;
8592;SDS011;4334;49.982;8.398;2022-12-08T12:20:11;6.20;;;3.20;;
8592;SDS011;4334;49.982;8.398;2022-12-08T12:22:41;3.93;;;3.10;;
8592;SDS011;4334;49.982;8.398;2022-12-08T12:25:15;4.50;;;3.43;;
8592;SDS011;4334;49.982;8.398;2022-12-08T12:27:45;4.77;;;3.60;;
8592;SDS011;4334;49.982;8.398;2022-12-08T12:30:19;7.73;;;4.00;;
8592;SDS011;4334;49.982;8.398;2022-12-08T12:32:50;4.33;;;2.90;;
8592;SDS011;4334;49.982;8.398;2022-12-08T12:35:20;4.17;;;2.90;;
8592;SDS011;4334;49.982;8.398;2022-12-08T12:37:55;4.97;;;3.23;;
8592;SDS011;4334;49.982;8.398;2022-12-08T12:40:25;3.57;;;2.73;;
8592;SDS011;4334;49.982;8.398;2022-12-08T12:43:23;4.00;;;3.07;;
8592;SDS011;4334;49.982;8.398;2022-12-08T12:55:35;8.43;;;3.10;;
8592;SDS011;4334;49.982;8.398;2022-12-08T12:58:22;5.97;;;3.40;;
8592;SDS011;4334;49.982;8.398;2022-12-08T13:04:08;6.40;;;3.17;;
8592;SDS011;4334;49.982;8.398;2022-12-08T13:06:37;3.73;;;3.27;;
8592;SDS011;4334;49.982;8.398;2022-12-08T13:09:15;4.43;;;3.50;;
8592;SDS011;4334;49.982;8.398;2022-12-08T13:11:46;6.33;;;4.80;;
8592;SDS011;4334;49.982;8.398;2022-12-08T13:14:28;8.77;;;5.73;;
8592;SDS011;4334;49.982;8.398;2022-12-08T13:16:57;7.20;;;4.40;;
8592;SDS011;4334;49.982;8.398;2022-12-08T13:19:28;5.90;;;3.03;;
8592;SDS011;4334;49.982;8.398;2022-12-08T13:21:56;5.33;;;3.17;;
8592;SDS011;4334;49.982;8.398;2022-12-08T13:24:26;5.20;;;2.90;;
8592;SDS011;4334;49.982;8.398;2022-12-08T13:33:17;8.40;;;2.87;;
8592;SDS011;4334;49.982;8.398;2022-12-08T13:35:53;3.83;;;2.63;;
8592;SDS011;4334;49.982;8.398;2022-12-08T13:38:28;4.23;;;2.90;;
8592;SDS011;4334;49.982;8.398;2022-12-08T13:40:59;6.70;;;3.30;;
8592;SDS011;4334;49.982;8.398;2022-12-08T13:43:31;3.40;;;3.10;;
8592;SDS011;4334;49.982;8.398;2022-12-08T13:46:03;3.13;;;2.80;;
8592;SDS011;4334;49.982;8.398;2022-12-08T13:48:37;4.37;;;2.90;;
8592;SDS011;4334;49.982;8.398;2022-12-08T13:51:12;6.90;;;2.90;;
8592;SDS011;4334;49.982;8.398;2022-12-08T13:53:42;4.67;;;3.17;;
8592;SDS011;4334;49.982;8.398;2022-12-08T13:56:17;7.27;;;3.73;;
8592;SDS011;4334;49.982;8.398;2022-12-08T13:58:46;10.07;;;3.40;;
8592;SDS011;4334;49.982;8.398;2022-12-08T14:01:13;10.47;;;3.13;;
8592;SDS011;4334;49.982;8.398;2022-12-08T14:03:49;4.20;;;3.20;;
8592;SDS011;4334;49.982;8.398;2022-12-08T14:06:23;5.57;;;3.67;;
8592;SDS011;4334;49.982;8.398;2022-12-08T14:08:53;5.80;;;3.93;;
8592;SDS011;4334;49.982;8.398;2022-12-08T14:11:23;4.90;;;3.53;;
8592;SDS011;4334;49.982;8.398;2022-12-08T14:14:00;6.53;;;3.63;;
8592;SDS011;4334;49.982;8.398;2022-12-08T14:16:28;6.13;;;3.77;;
8592;SDS011;4334;49.982;8.398;2022-12-08T14:19:05;5.50;;;3.77;;
8592;SDS011;4334;49.982;8.398;2022-12-08T14:21:40;5.17;;;3.70;;
8592;SDS011;4334;49.982;8.398;2022-12-08T14:24:07;5.27;;;3.20;;
8592;SDS011;4334;49.982;8.398;2022-12-08T14:26:36;5.63;;;3.37;;
8592;SDS011;4334;49.982;8.398;2022-12-08T14:29:05;17.40;;;7.63;;
8592;SDS011;4334;49.982;8.398;2022-12-08T14:31:32;13.10;;;5.77;;
8592;SDS011;4334;49.982;8.398;2022-12-08T14:33:59;6.73;;;3.90;;
8592;SDS011;4334;49.982;8.398;2022-12-08T14:36:27;5.60;;;3.53;;
8592;SDS011;4334;49.982;8.398;2022-12-08T14:38:57;5.67;;;3.27;;
8592;SDS011;4334;49.982;8.398;2022-12-08T14:41:24;8.30;;;3.30;;
8592;SDS011;4334;49.982;8.398;2022-12-08T14:43:57;4.87;;;3.30;;
8592;SDS011;4334;49.982;8.398;2022-12-08T14:46:25;5.03;;;3.60;;
8592;SDS011;4334;49.982;8.398;2022-12-08T14:48:53;7.10;;;3.50;;
8592;SDS011;4334;49.982;8.398;2022-12-08T14:51:23;5.60;;;3.60;;
8592;SDS011;4334;49.982;8.398;2022-12-08T14:53:55;5.53;;;3.93;;
8592;SDS011;4334;49.982;8.398;2022-12-08T14:56:25;5.40;;;3.73;;
8592;SDS011;4334;49.982;8.398;2022-12-08T14:59:04;8.23;;;4.57;;
8592;SDS011;4334;49.982;8.398;2022-12-08T15:01:36;5.33;;;3.97;;
8592;SDS011;4334;49.982;8.398;2022-12-08T15:04:06;5.67;;;3.87;;
8592;SDS011;4334;49.982;8.398;2022-12-08T15:06:43;8.40;;;4.10;;
8592;SDS011;4334;49.982;8.398;2022-12-08T15:09:26;10.43;;;6.13;;
8592;SDS011;4334;49.982;8.398;2022-12-08T15:11:59;6.63;;;4.83;;
8592;SDS011;4334;49.982;8.398;2022-12-08T15:14:27;6.77;;;4.70;;
8592;SDS011;4334;49.982;8.398;2022-12-08T15:16:56;8.13;;;4.97;;
8592;SDS011;4334;49.982;8.398;2022-12-08T15:19:24;7.17;;;4.60;;
8592;SDS011;4334;49.982;8.398;2022-12-08T15:21:54;7.60;;;4.60;;
8592;SDS011;4334;49.982;8.398;2022-12-08T15:24:25;9.60;;;6.30;;
8592;SDS011;4334;49.982;8.398;2022-12-08T15:26:54;6.90;;;4.80;;
8592;SDS011;4334;49.982;8.398;2022-12-08T15:29:21;10.83;;;5.87;;
8592;SDS011;4334;49.982;8.398;2022-12-08T15:31:50;6.27;;;4.30;;
8592;SDS011;4334;49.982;8.398;2022-12-08T15:34:18;6.90;;;4.43;;
8592;SDS011;4334;49.982;8.398;2022-12-08T15:36:46;8.47;;;4.40;;
8592;SDS011;4334;49.982;8.398;2022-12-08T15:39:20;10.63;;;4.50;;